Dakar, Senegal
Current Conditions -  °F | °C
As of 11:00 PM on Monday 20 Oct 2014 (Local Time) from GOOY Reporting Station
Few Clouds Few Clouds  
Wind Chill: 81°   Ceiling: Unl
Heat Index: 86°   Visibility: 6mi
Dew Point: 75°   Wind: 6mph
Humidity: 84%   Direction: 340°NNW
Pressure: 29.91"   Gusts: NA
Location:  14.72°N, 17.48°W
Report Text: GOOY 202300Z 34005KT 9999 FEW008 27/24 Q1013 NOSIG
Loading
Personal Weather Stations






























Interactive Weather Map
Tropical Storm Tracking
New forecast layout! Learn more

10-Day Weather Forecast

Advertisements
Track Severe Weather on mobile